createdAt,value
2019-03-19T00:00:24.643Z,10.3
2019-03-19T00:01:14.693Z,10.3
2019-03-19T00:02:04.760Z,10.2
2019-03-19T00:02:54.826Z,10.3
2019-03-19T00:03:44.333Z,10.3
2019-03-19T00:04:34.948Z,10.3
2019-03-19T00:05:24.720Z,10.3
2019-03-19T00:06:15.081Z,10.2
2019-03-19T00:07:05.147Z,10.3
2019-03-19T00:07:54.916Z,10.3
2019-03-19T00:08:45.033Z,10.2
2019-03-19T00:09:35.312Z,10.2
2019-03-19T00:10:25.370Z,10.2
2019-03-19T00:11:15.425Z,10.2
2019-03-19T00:12:05.218Z,10.2
2019-03-19T00:12:55.544Z,10.2
2019-03-19T00:13:45.333Z,10.2
2019-03-19T00:14:35.386Z,10.2
2019-03-19T00:15:25.732Z,10.1
2019-03-19T00:16:15.785Z,10.2
2019-03-19T00:17:05.850Z,10.1
2019-03-19T00:17:55.907Z,10.2
2019-03-19T00:18:45.972Z,10.1
2019-03-19T00:19:36.047Z,10.1
2019-03-19T00:20:26.107Z,10.1
2019-03-19T00:21:15.884Z,10.1
2019-03-19T00:22:06.224Z,10.1
2019-03-19T00:22:56.295Z,10.1
2019-03-19T00:23:46.377Z,10.1
2019-03-19T00:24:36.131Z,10.1
2019-03-19T00:25:31.665Z,10
2019-03-19T00:26:16.249Z,10
2019-03-19T00:27:06.601Z,10
2019-03-19T00:27:56.694Z,10
2019-03-19T00:28:46.437Z,10
2019-03-19T00:29:36.492Z,9.9
2019-03-19T00:30:26.841Z,9.9
2019-03-19T00:31:16.618Z,9.9
2019-03-19T00:32:06.466Z,9.9
2019-03-19T00:32:57.011Z,9.9
2019-03-19T00:33:47.068Z,9.9
2019-03-19T00:34:37.127Z,9.9
2019-03-19T00:35:27.204Z,9.9
2019-03-19T00:36:18.839Z,9.9
2019-03-19T00:37:07.054Z,9.9
2019-03-19T00:37:57.377Z,9.9
2019-03-19T00:38:47.166Z,9.9
2019-03-19T00:39:37.505Z,9.9
2019-03-19T00:40:27.558Z,9.9
2019-03-19T00:41:17.396Z,9.9
2019-03-19T00:42:07.398Z,9.9
2019-03-19T00:42:57.463Z,9.8
2019-03-19T00:43:47.805Z,9.8
2019-03-19T00:44:37.592Z,9.8
2019-03-19T00:45:27.935Z,9.8
2019-03-19T00:46:18.036Z,9.8
2019-03-19T00:47:08.045Z,9.8
2019-03-19T00:47:58.166Z,9.8
2019-03-19T00:48:47.881Z,9.8
2019-03-19T00:49:37.956Z,9.8
2019-03-19T00:50:28.004Z,9.8
2019-03-19T00:51:18.400Z,9.8
2019-03-19T00:52:07.860Z,9.8
2019-03-19T00:52:58.470Z,9.7
2019-03-19T00:53:48.262Z,9.7
2019-03-19T00:54:38.055Z,9.7
2019-03-19T00:55:28.385Z,9.7
2019-03-19T00:56:18.725Z,9.7
2019-03-19T00:57:08.780Z,9.7
2019-03-19T00:57:58.840Z,9.6
2019-03-19T00:58:48.622Z,9.6
2019-03-19T00:59:38.675Z,9.6
2019-03-19T01:00:29.008Z,9.6
2019-03-19T01:01:18.800Z,9.6
2019-03-19T01:02:08.865Z,9.6
2019-03-19T01:02:58.923Z,9.6
2019-03-19T01:03:49.258Z,9.6
2019-03-19T01:04:39.320Z,9.6
2019-03-19T01:05:29.395Z,9.6
2019-03-19T01:06:19.449Z,9.6
2019-03-19T01:07:09.512Z,9.6
2019-03-19T01:07:59.307Z,9.6
2019-03-19T01:08:49.631Z,9.6
2019-03-19T01:09:39.424Z,9.6
2019-03-19T01:10:29.747Z,9.6
2019-03-19T01:11:19.531Z,9.5
2019-03-19T01:12:09.586Z,9.5
2019-03-19T01:12:59.924Z,9.5
2019-03-19T01:13:49.979Z,9.5
2019-03-19T01:14:40.049Z,9.5
2019-03-19T01:15:30.114Z,9.4
2019-03-19T01:16:20.163Z,9.4
2019-03-19T01:17:10.236Z,9.4
2019-03-19T01:18:00.299Z,9.4
2019-03-19T01:18:50.354Z,9.4
2019-03-19T01:19:40.141Z,9.4
2019-03-19T01:20:30.493Z,9.4
2019-03-19T01:21:20.547Z,9.4
2019-03-19T01:22:10.316Z,9.4
2019-03-19T01:23:00.668Z,9.4
2019-03-19T01:23:50.448Z,9.3
2019-03-19T01:24:40.501Z,9.3
2019-03-19T01:25:30.299Z,9.3
2019-03-19T01:26:20.633Z,9.3
2019-03-19T01:27:10.687Z,9.3
2019-03-19T01:28:00.760Z,9.3
2019-03-19T01:28:51.099Z,9.3
2019-03-19T01:29:41.140Z,9.3
2019-03-19T01:30:31.205Z,9.3
2019-03-19T01:31:20.990Z,9.3
2019-03-19T01:32:11.043Z,9.3
2019-03-19T01:33:01.120Z,9.3
2019-03-19T01:33:51.178Z,9.2
2019-03-19T01:34:41.238Z,9.2
2019-03-19T01:35:31.350Z,9.2
2019-03-19T01:36:21.629Z,9.2
2019-03-19T01:37:11.417Z,9.2
2019-03-19T01:38:01.503Z,9.1
2019-03-19T01:38:51.823Z,9.1
2019-03-19T01:39:41.897Z,9.1
2019-03-19T01:40:31.961Z,9.1
2019-03-19T01:41:21.997Z,9.1
2019-03-19T01:42:11.794Z,9.1
2019-03-19T01:43:01.842Z,9.1
2019-03-19T01:43:52.187Z,9.1
2019-03-19T01:44:41.975Z,9.1
2019-03-19T01:45:32.305Z,9
2019-03-19T01:46:22.349Z,9
2019-03-19T01:47:12.419Z,9
2019-03-19T01:48:02.495Z,9
2019-03-19T01:48:52.532Z,9
2019-03-19T01:49:42.334Z,9
2019-03-19T01:50:32.397Z,8.9
2019-03-19T01:51:22.454Z,8.9
2019-03-19T01:52:12.796Z,8.9
2019-03-19T01:53:02.859Z,8.9
2019-03-19T01:53:52.631Z,8.9
2019-03-19T01:54:42.972Z,8.9
2019-03-19T01:55:33.037Z,8.9
2019-03-19T01:56:23.076Z,8.9
2019-03-19T01:57:12.882Z,8.9
2019-03-19T01:58:03.229Z,8.9
2019-03-19T01:58:53.006Z,8.9
2019-03-19T01:59:43.341Z,8.8
2019-03-19T02:00:33.126Z,8.8
2019-03-19T02:01:23.456Z,8.8
2019-03-19T02:02:13.011Z,8.8
2019-03-19T02:03:03.572Z,8.8
2019-03-19T02:03:53.659Z,8.8
2019-03-19T02:04:43.436Z,8.8
2019-03-19T02:05:33.541Z,8.8
2019-03-19T02:06:23.811Z,8.8
2019-03-19T02:07:13.328Z,8.8
2019-03-19T02:08:03.690Z,8.8
2019-03-19T02:08:53.734Z,8.7
2019-03-19T02:09:43.791Z,8.8
2019-03-19T02:10:34.123Z,8.7
2019-03-19T02:11:24.186Z,8.7
2019-03-19T02:12:13.966Z,8.7
2019-03-19T02:13:04.305Z,8.7
2019-03-19T02:13:54.103Z,8.7
2019-03-19T02:14:44.439Z,8.6
2019-03-19T02:15:34.488Z,8.6
2019-03-19T02:16:24.542Z,8.6
2019-03-19T02:17:14.628Z,8.6
2019-03-19T02:18:04.410Z,8.6
2019-03-19T02:18:54.450Z,8.6
2019-03-19T02:19:44.803Z,8.6
2019-03-19T02:20:34.355Z,8.6
2019-03-19T02:21:24.930Z,8.6
2019-03-19T02:22:14.970Z,8.6
2019-03-19T02:23:06.005Z,8.5
2019-03-19T02:23:54.844Z,8.5
2019-03-19T02:24:44.963Z,8.5
2019-03-19T02:25:35.228Z,8.5
2019-03-19T02:26:25.274Z,8.5
2019-03-19T02:27:15.351Z,8.4
2019-03-19T02:28:05.402Z,8.4
2019-03-19T02:28:54.914Z,8.4
2019-03-19T02:29:45.525Z,8.4
2019-03-19T02:30:35.613Z,8.4
2019-03-19T02:31:25.175Z,8.4
2019-03-19T02:32:15.474Z,8.4
2019-03-19T02:33:05.785Z,8.4
2019-03-19T02:33:55.578Z,8.4
2019-03-19T02:34:46.094Z,8.3
2019-03-19T02:35:36.004Z,8.3
2019-03-19T02:36:26.044Z,8.3
2019-03-19T02:37:15.821Z,8.3
2019-03-19T02:38:06.182Z,8.3
2019-03-19T02:38:56.207Z,8.3
2019-03-19T02:39:45.992Z,8.3
2019-03-19T02:40:36.060Z,8.3
2019-03-19T02:41:26.398Z,8.3
2019-03-19T02:42:16.471Z,8.2
2019-03-19T02:43:06.507Z,8.2
2019-03-19T02:43:56.582Z,8.2
2019-03-19T02:44:46.366Z,8.2
2019-03-19T02:45:36.691Z,8.2
2019-03-19T02:46:26.766Z,8.2
2019-03-19T02:47:16.821Z,8.1
2019-03-19T02:48:06.652Z,8.1
2019-03-19T02:48:56.970Z,8.1
2019-03-19T02:49:46.996Z,8.1
2019-03-19T02:50:37.071Z,8.1
2019-03-19T02:51:27.174Z,8.1
2019-03-19T02:52:16.906Z,8.1
2019-03-19T02:53:07.243Z,8.1
2019-03-19T02:53:57.306Z,8.1
2019-03-19T02:54:47.373Z,8
2019-03-19T02:55:37.417Z,8
2019-03-19T02:56:34.839Z,8
2019-03-19T02:57:17.290Z,8
2019-03-19T02:58:07.603Z,7.9
2019-03-19T02:58:57.104Z,7.9
2019-03-19T02:59:47.186Z,7.9
2019-03-19T03:00:37.766Z,7.9
2019-03-19T03:01:27.839Z,7.9
2019-03-19T03:02:17.908Z,7.9
2019-03-19T03:03:07.979Z,7.9
2019-03-19T03:03:58.013Z,7.9
2019-03-19T03:07:28.473Z,7.8
2019-03-19T03:08:18.255Z,7.8
2019-03-19T03:09:08.675Z,7.8
2019-03-19T03:09:58.658Z,7.8
2019-03-19T03:10:48.721Z,7.8
2019-03-19T03:11:38.799Z,7.7
2019-03-19T03:12:28.837Z,7.7
2019-03-19T03:13:18.898Z,7.7
2019-03-19T03:14:08.965Z,7.7
2019-03-19T03:14:59.038Z,7.7
2019-03-19T03:15:48.803Z,7.6
2019-03-19T03:16:39.144Z,7.6
2019-03-19T03:17:28.941Z,7.6
2019-03-19T03:18:18.983Z,7.6
2019-03-19T03:19:09.341Z,7.6
2019-03-19T03:19:59.109Z,7.6
2019-03-19T03:20:49.437Z,7.6
2019-03-19T03:21:39.512Z,7.6
2019-03-19T03:22:29.556Z,7.6
2019-03-19T03:23:19.625Z,7.5
2019-03-19T03:24:09.144Z,7.5
2019-03-19T03:24:59.478Z,7.5
2019-03-19T03:25:49.547Z,7.5
2019-03-19T03:26:49.927Z,7.4
2019-03-19T03:27:29.661Z,7.4
2019-03-19T03:28:19.733Z,7.4
2019-03-19T03:29:09.796Z,7.4
2019-03-19T03:30:00.376Z,7.4
2019-03-19T03:30:50.237Z,7.4
2019-03-19T03:31:40.052Z,7.4
2019-03-19T03:32:30.104Z,7.4
2019-03-19T03:33:20.404Z,7.4
2019-03-19T03:34:10.478Z,7.3
2019-03-19T03:35:00.848Z,7.3
2019-03-19T03:35:50.272Z,7.3
2019-03-19T03:36:40.600Z,7.3
2019-03-19T03:37:30.087Z,7.3
2019-03-19T03:38:20.709Z,7.3
2019-03-19T03:39:10.515Z,7.3
2019-03-19T03:40:01.071Z,7.2
2019-03-19T03:40:50.913Z,7.2
2019-03-19T03:41:40.763Z,7.2
2019-03-19T03:42:31.009Z,7.2
2019-03-19T03:43:20.869Z,7.1
2019-03-19T03:44:11.141Z,7.2
2019-03-19T03:45:01.014Z,7.1
2019-03-19T03:45:51.273Z,7.1
2019-03-19T03:46:41.327Z,7.1
2019-03-19T03:47:31.405Z,7.1
2019-03-19T03:48:21.153Z,7.1
2019-03-19T03:49:11.491Z,7.1
2019-03-19T03:50:01.819Z,7.1
2019-03-19T03:50:51.709Z,7.1
2019-03-19T03:51:41.696Z,7
2019-03-19T03:52:31.749Z,7
2019-03-19T03:53:21.813Z,7
2019-03-19T03:54:11.600Z,6.9
2019-03-19T03:55:01.804Z,6.9
2019-03-19T03:55:52.001Z,6.9
2019-03-19T03:56:42.039Z,6.9
2019-03-19T03:57:32.139Z,6.9
2019-03-19T03:58:21.899Z,6.9
2019-03-19T03:59:11.955Z,6.9
2019-03-19T04:00:02.109Z,6.9
2019-03-19T04:00:52.342Z,6.8
2019-03-19T04:01:42.425Z,6.8
2019-03-19T04:02:32.477Z,6.8
2019-03-19T04:03:22.543Z,6.8
2019-03-19T04:04:12.312Z,6.8
2019-03-19T04:05:02.794Z,6.8
2019-03-19T04:05:52.705Z,6.8
2019-03-19T04:06:42.784Z,6.8
2019-03-19T04:07:32.856Z,6.8
2019-03-19T04:08:22.375Z,6.8
2019-03-19T04:09:12.970Z,6.7
2019-03-19T04:10:03.054Z,6.7
2019-03-19T04:10:53.117Z,6.7
2019-03-19T04:11:43.162Z,6.7
2019-03-19T04:12:33.232Z,6.6
2019-03-19T04:13:23.017Z,6.6
2019-03-19T04:14:13.320Z,6.6
2019-03-19T04:15:03.492Z,6.6
2019-03-19T04:15:53.440Z,6.6
2019-03-19T04:16:43.241Z,6.6
2019-03-19T04:17:33.294Z,6.6
2019-03-19T04:18:23.385Z,6.6
2019-03-19T04:19:13.684Z,6.6
2019-03-19T04:20:03.778Z,6.5
2019-03-19T04:20:53.533Z,6.5
2019-03-19T04:21:43.615Z,6.5
2019-03-19T04:22:33.646Z,6.5
2019-03-19T04:23:24.008Z,6.4
2019-03-19T04:24:13.503Z,6.4
2019-03-19T04:25:03.577Z,6.4
2019-03-19T04:25:53.935Z,6.4
2019-03-19T04:26:44.239Z,6.4
2019-03-19T04:27:34.289Z,6.4
2019-03-19T04:28:23.813Z,6.4
2019-03-19T04:29:14.131Z,6.4
2019-03-19T04:30:04.232Z,6.4
2019-03-19T04:30:54.614Z,6.4
2019-03-19T04:31:44.309Z,6.4
2019-03-19T04:32:34.477Z,6.3
2019-03-19T04:33:24.434Z,6.3
2019-03-19T04:34:14.778Z,6.3
2019-03-19T04:35:04.838Z,6.3
2019-03-19T04:35:54.904Z,6.3
2019-03-19T04:36:44.952Z,6.3
2019-03-19T04:37:34.728Z,6.3
2019-03-19T04:38:25.097Z,6.3
2019-03-19T04:39:14.856Z,6.3
2019-03-19T04:40:04.942Z,6.3
2019-03-19T04:40:55.265Z,6.3
2019-03-19T04:41:45.317Z,6.3
2019-03-19T04:42:35.371Z,6.2
2019-03-19T04:43:25.186Z,6.2
2019-03-19T04:44:15.503Z,6.2
2019-03-19T04:45:05.550Z,6.2
2019-03-19T04:45:55.609Z,6.2
2019-03-19T04:46:45.675Z,6.2
2019-03-19T04:47:35.737Z,6.2
2019-03-19T04:48:25.804Z,6.2
2019-03-19T04:49:15.036Z,6.1
2019-03-19T04:50:05.912Z,6.1
2019-03-19T04:50:55.703Z,6.1
2019-03-19T04:51:45.749Z,6.1
2019-03-19T04:52:35.816Z,6.1
2019-03-19T04:53:25.892Z,6.1
2019-03-19T04:54:16.222Z,6.1
2019-03-19T04:55:05.726Z,6.1
2019-03-19T04:55:56.340Z,6.1
2019-03-19T04:56:46.414Z,6.1
2019-03-19T04:57:36.454Z,6.1
2019-03-19T04:58:26.528Z,6.1
2019-03-19T04:59:16.589Z,6.1
2019-03-19T05:00:06.651Z,6.1
2019-03-19T05:00:56.703Z,6.1
2019-03-19T05:01:46.804Z,6.1
2019-03-19T05:02:36.819Z,6.1
2019-03-19T05:03:26.879Z,6.1
2019-03-19T05:04:16.948Z,6.1
2019-03-19T05:05:07.012Z,6.1
2019-03-19T05:05:56.803Z,6.1
2019-03-19T05:06:47.126Z,6.1
2019-03-19T05:07:37.188Z,6.1
2019-03-19T05:08:26.986Z,6.1
2019-03-19T05:09:17.031Z,6.1
2019-03-19T05:10:07.378Z,6.1
2019-03-19T05:10:57.435Z,6.1
2019-03-19T05:11:47.543Z,6.1
2019-03-19T05:12:37.280Z,6.1
2019-03-19T05:13:27.343Z,6.1
2019-03-19T05:14:17.685Z,6.1
2019-03-19T05:15:07.454Z,6.1
2019-03-19T05:15:57.242Z,6.1
2019-03-19T05:16:47.902Z,6.1
2019-03-19T05:17:37.362Z,6.1
2019-03-19T05:18:28.030Z,6.2
2019-03-19T05:19:18.053Z,6.2
2019-03-19T05:20:08.087Z,6.2
2019-03-19T05:20:58.160Z,6.2
2019-03-19T05:21:47.943Z,6.3
2019-03-19T05:22:38.292Z,6.3
2019-03-19T05:23:28.366Z,6.3
2019-03-19T05:24:18.387Z,6.3
2019-03-19T05:25:08.189Z,6.3
2019-03-19T05:25:58.518Z,6.3
2019-03-19T05:26:48.576Z,6.4
2019-03-19T05:27:39.130Z,6.4
2019-03-19T05:28:28.432Z,6.5
2019-03-19T05:29:18.803Z,6.5
2019-03-19T05:30:08.822Z,6.6
2019-03-19T05:30:58.597Z,6.6
2019-03-19T05:31:48.939Z,6.7
2019-03-19T05:32:38.439Z,6.8
2019-03-19T05:33:28.787Z,6.8
2019-03-19T05:34:19.185Z,6.8
2019-03-19T05:35:09.193Z,6.9
2019-03-19T05:35:59.239Z,7
2019-03-19T05:36:49.338Z,7.1
2019-03-19T05:37:39.137Z,7.1
2019-03-19T05:38:29.418Z,7.2
2019-03-19T05:39:19.196Z,7.3
2019-03-19T05:40:09.265Z,7.4
2019-03-19T05:40:59.604Z,7.5
2019-03-19T05:41:49.391Z,7.6
2019-03-19T05:42:39.742Z,7.7
2019-03-19T05:43:29.548Z,7.8
2019-03-19T05:44:19.850Z,7.9
2019-03-19T05:45:09.912Z,8
2019-03-19T05:45:59.693Z,8.1
2019-03-19T05:46:50.035Z,8.3
2019-03-19T05:47:42.168Z,8.4
2019-03-19T05:48:30.148Z,8.5
2019-03-19T05:49:19.920Z,8.6
2019-03-19T05:50:09.993Z,8.8
2019-03-19T05:51:00.258Z,8.9
2019-03-19T05:51:50.388Z,9.1
2019-03-19T05:52:40.453Z,9.2
2019-03-19T05:53:30.233Z,9.4
2019-03-19T05:54:20.566Z,9.6
2019-03-19T05:55:10.637Z,9.7
2019-03-19T05:56:00.685Z,9.9
2019-03-19T05:56:50.798Z,10.1
2019-03-19T05:57:51.600Z,10.3
2019-03-19T05:58:30.592Z,10.4
2019-03-19T05:59:20.652Z,10.6
2019-03-19T06:00:10.988Z,10.8
2019-03-19T06:01:01.061Z,11
2019-03-19T06:01:51.110Z,11.3
2019-03-19T06:02:40.901Z,11.4
2019-03-19T06:03:31.225Z,11.6
2019-03-19T06:05:28.470Z,12.1
2019-03-19T06:06:33.052Z,12.4
2019-03-19T06:07:24.290Z,12.8
2019-03-19T06:07:59.112Z,13.1
2019-03-19T07:05:28.355Z,44.1
2019-03-19T07:06:18.354Z,44.4
2019-03-19T07:07:08.131Z,44.4
2019-03-19T07:07:58.474Z,44.6
2019-03-19T07:08:48.524Z,44.7
2019-03-19T07:09:38.318Z,44.8
2019-03-19T07:10:28.369Z,44.9
2019-03-19T07:11:18.428Z,45.1
2019-03-19T07:12:08.496Z,45.3
2019-03-19T07:13:14.936Z,45.4
2019-03-19T07:13:48.892Z,45.6
2019-03-19T07:14:39.006Z,45.7
2019-03-19T07:16:38.062Z,46
2019-03-19T07:17:28.155Z,46.1
2019-03-19T07:18:17.622Z,46.2
2019-03-19T07:19:08.240Z,46.3
2019-03-19T07:19:58.298Z,46.4
2019-03-19T07:20:48.355Z,46.6
2019-03-19T07:21:38.419Z,46.6
2019-03-19T07:22:28.192Z,46.7
2019-03-19T07:23:18.264Z,46.8
2019-03-19T07:24:08.596Z,46.8
2019-03-19T07:24:58.664Z,46.6
2019-03-19T07:25:48.440Z,46.6
2019-03-19T07:26:38.510Z,46.6
2019-03-19T07:27:28.276Z,46.6
2019-03-19T07:28:23.819Z,46.8
2019-03-19T07:29:08.961Z,47.1
2019-03-19T07:29:58.999Z,47.3
2019-03-19T07:30:48.802Z,47.4
2019-03-19T07:31:39.140Z,47.4
2019-03-19T07:32:29.209Z,47.4
2019-03-19T07:33:19.252Z,47.6
2019-03-19T07:34:09.032Z,47.6
2019-03-19T07:34:59.378Z,47.7
2019-03-19T07:35:49.442Z,47.8
2019-03-19T07:36:39.567Z,47.8
2019-03-19T07:37:29.559Z,47.8
2019-03-19T07:38:19.359Z,47.9
2019-03-19T07:39:09.396Z,47.9
2019-03-19T07:39:59.453Z,48
2019-03-19T07:40:49.541Z,48.1
2019-03-19T07:41:39.608Z,48.2
2019-03-19T07:42:29.928Z,48.3
2019-03-19T07:43:20.031Z,48.5
2019-03-19T07:44:09.759Z,48.7
2019-03-19T07:44:59.823Z,48.8
2019-03-19T07:45:49.891Z,48.9
2019-03-19T07:46:40.233Z,49
2019-03-19T07:47:30.268Z,49.2
2019-03-19T07:48:20.338Z,49.3
2019-03-19T07:49:10.429Z,49.4
2019-03-19T07:50:00.336Z,49.6
2019-03-19T07:50:50.526Z,49.8
2019-03-19T07:51:40.580Z,49.9
2019-03-19T07:52:30.645Z,50
2019-03-19T07:53:20.702Z,50.1
2019-03-19T07:54:10.762Z,50.3
2019-03-19T07:55:00.613Z,50.4
2019-03-19T07:55:53.239Z,50.5
2019-03-19T07:56:40.957Z,50.6
2019-03-19T07:57:31.186Z,50.8
2019-03-19T07:58:45.873Z,50.9
2019-03-19T07:59:11.117Z,51.1
2019-03-19T08:00:01.125Z,51.2
2019-03-19T08:00:51.234Z,51.3
2019-03-19T08:01:41.305Z,51.4
2019-03-19T08:02:31.087Z,51.6
2019-03-19T08:03:21.424Z,51.8
2019-03-19T08:04:11.495Z,51.9
2019-03-19T08:05:01.693Z,52
2019-03-19T08:05:51.616Z,52.1
2019-03-19T08:06:41.662Z,52
2019-03-19T08:07:31.734Z,51.9
2019-03-19T08:08:21.790Z,51.8
2019-03-19T08:10:01.919Z,52.2
2019-03-19T08:10:51.965Z,52.5
2019-03-19T08:11:42.027Z,52.8
2019-03-19T08:12:33.902Z,53
2019-03-19T08:13:22.166Z,53.1
2019-03-19T08:14:12.211Z,53.2
2019-03-19T08:15:02.342Z,53.3
2019-03-19T08:15:52.047Z,53.4
2019-03-19T08:16:42.397Z,53.5
2019-03-19T08:17:32.204Z,53.7
2019-03-19T08:18:22.241Z,53.9
2019-03-19T08:19:12.320Z,54.1
2019-03-19T08:20:02.641Z,54.3
2019-03-19T08:20:52.141Z,54.4
2019-03-19T08:21:42.801Z,54.6
2019-03-19T08:22:32.821Z,54.7
2019-03-19T08:23:22.873Z,54.8
2019-03-19T08:24:12.936Z,54.9
2019-03-19T08:25:03.017Z,55.1
2019-03-19T08:25:53.063Z,55.2
2019-03-19T08:26:43.113Z,55.3
2019-03-19T08:27:33.191Z,55.5
2019-03-19T08:28:23.252Z,55.6
2019-03-19T08:29:13.296Z,55.8
2019-03-19T08:30:03.095Z,55.9
2019-03-19T08:30:53.420Z,56.1
2019-03-19T08:31:43.476Z,56.2
2019-03-19T08:32:33.544Z,56.3
2019-03-19T08:33:23.607Z,56.4
2019-03-19T08:34:13.377Z,56.6
2019-03-19T08:35:03.733Z,56.6
2019-03-19T08:35:53.776Z,56.8
2019-03-19T08:36:43.855Z,56.9
2019-03-19T08:37:33.624Z,57.1
2019-03-19T08:38:23.680Z,57.2
2019-03-19T08:39:14.022Z,57.3
2019-03-19T08:40:04.086Z,57.4
2019-03-19T08:40:54.147Z,57.6
2019-03-19T08:41:43.988Z,57.6
2019-03-19T08:42:34.260Z,57.6
2019-03-19T08:43:24.324Z,57.6
2019-03-19T08:44:14.112Z,57.6
2019-03-19T08:45:04.455Z,57.8
2019-03-19T08:45:54.235Z,58
2019-03-19T08:46:44.576Z,58.2
2019-03-19T08:47:34.624Z,58.4
2019-03-19T08:48:24.412Z,58.5
2019-03-19T08:49:14.488Z,58.6
2019-03-19T08:50:04.805Z,58.8
2019-03-19T08:50:54.599Z,58.9
2019-03-19T08:51:44.666Z,58.9
2019-03-19T08:52:34.723Z,59.1
2019-03-19T08:53:24.772Z,59.2
2019-03-19T08:54:14.562Z,59.3
2019-03-19T08:55:05.182Z,59.4
2019-03-19T08:55:54.962Z,59.6
2019-03-19T08:56:45.296Z,59.7
2019-03-19T08:57:35.196Z,59.8
2019-03-19T08:58:25.129Z,59.9
2019-03-19T08:59:15.199Z,59.9
2019-03-19T09:00:05.543Z,60
2019-03-19T09:00:55.316Z,59.8
2019-03-19T09:01:47.894Z,59.4
2019-03-19T09:02:35.716Z,59.1
2019-03-19T09:03:25.766Z,58.8
2019-03-19T09:04:15.834Z,58.5
2019-03-19T09:05:05.623Z,58.4
2019-03-19T09:05:55.956Z,58.3
2019-03-19T09:06:46.015Z,58.3
2019-03-19T09:07:36.072Z,58.3
2019-03-19T09:08:26.185Z,58.3
2019-03-19T09:09:16.199Z,58.3
2019-03-19T09:10:06.264Z,58.1
2019-03-19T09:10:56.318Z,57.9
2019-03-19T09:11:46.379Z,57.7
2019-03-19T09:12:36.452Z,57.6
2019-03-19T09:13:26.221Z,57.4
2019-03-19T09:14:16.285Z,57.4
2019-03-19T09:15:06.628Z,57.4
2019-03-19T09:15:56.405Z,57.4
2019-03-19T09:16:46.481Z,57.5
2019-03-19T09:17:36.813Z,57.7
2019-03-19T09:18:26.585Z,57.9
2019-03-19T09:19:16.653Z,57.9
2019-03-19T09:20:06.988Z,57.9
2019-03-19T09:20:56.768Z,57.9
2019-03-19T09:21:46.843Z,58.1
2019-03-19T09:22:36.889Z,58.1
2019-03-19T09:23:26.949Z,57.9
2019-03-19T09:25:07.358Z,57.6
2019-03-19T09:26:47.182Z,58.3
2019-03-19T09:27:37.535Z,58.8
2019-03-19T09:28:27.592Z,59.1
2019-03-19T09:29:18.799Z,59.4
2019-03-19T09:30:07.727Z,59.6
2019-03-19T09:30:57.497Z,59.8
2019-03-19T09:31:47.564Z,59.8
2019-03-19T09:32:37.638Z,59.9
2019-03-19T09:33:27.695Z,60.1
2019-03-19T09:34:18.010Z,60.2
2019-03-19T09:35:07.852Z,60.3
2019-03-19T09:35:58.127Z,60.4
2019-03-19T09:36:58.847Z,60.6
2019-03-19T09:37:59.216Z,60.8
2019-03-19T09:38:28.326Z,60.9
2019-03-19T09:39:18.375Z,60.9
2019-03-19T09:40:08.436Z,61
2019-03-19T09:40:58.224Z,61.1
2019-03-19T09:41:48.554Z,61.3
2019-03-19T09:42:38.630Z,61.3
2019-03-19T09:43:28.406Z,61.4
2019-03-19T09:44:18.481Z,61.6
2019-03-19T09:45:08.799Z,61.7
2019-03-19T09:45:58.581Z,61.9
2019-03-19T09:46:48.924Z,61.9
2019-03-19T09:47:39.532Z,61.8
2019-03-19T09:48:29.831Z,61.5
2019-03-19T09:49:21.065Z,61.3
2019-03-19T09:50:09.161Z,61.2
2019-03-19T09:50:59.233Z,61.2
2019-03-19T09:51:49.011Z,61.3
2019-03-19T09:52:39.346Z,61.3
2019-03-19T09:53:29.405Z,61.3
2019-03-19T09:54:19.179Z,61.2
2019-03-19T09:55:09.536Z,61
2019-03-19T09:55:59.390Z,60.8
2019-03-19T09:56:49.376Z,60.8
2019-03-19T09:57:39.443Z,60.8
2019-03-19T09:58:29.769Z,60.9
2019-03-19T09:59:28.571Z,61.4
2019-03-19T10:00:09.882Z,62
2019-03-19T10:00:59.940Z,62.3
2019-03-19T10:01:50.005Z,62.5
2019-03-19T10:02:40.080Z,62.6
2019-03-19T10:03:30.128Z,62.7
2019-03-19T10:04:19.360Z,62.7
2019-03-19T10:06:28.158Z,62.9
2019-03-19T10:07:17.660Z,63.1
2019-03-19T10:08:08.284Z,63.1
2019-03-19T10:08:58.058Z,63.3
2019-03-19T10:09:48.412Z,63.3
2019-03-19T10:10:38.833Z,63.4
2019-03-19T10:11:28.587Z,63.6
2019-03-19T10:12:18.297Z,63.7
2019-03-19T10:13:08.357Z,63.8
2019-03-19T10:13:58.428Z,63.8
2019-03-19T10:14:48.762Z,63.9
2019-03-19T10:16:29.097Z,64.1
2019-03-19T10:17:18.959Z,64.3
2019-03-19T10:18:09.069Z,64.3
2019-03-19T10:18:59.258Z,64.4
2019-03-19T10:19:49.117Z,64.5
2019-03-19T10:20:38.919Z,64.6
2019-03-19T10:21:29.253Z,64.7
2019-03-19T10:22:19.314Z,64.8
2019-03-19T10:23:09.362Z,64.8
2019-03-19T10:23:59.440Z,64.9
2019-03-19T10:24:49.486Z,64.9
2019-03-19T10:25:39.692Z,64.9
2019-03-19T10:26:29.334Z,65
2019-03-19T10:27:21.246Z,65.1
2019-03-19T10:28:09.446Z,65.1
2019-03-19T10:28:59.804Z,65.2
2019-03-19T10:29:49.855Z,65.3
2019-03-19T10:30:39.911Z,65.4
2019-03-19T10:31:29.979Z,65.4
2019-03-19T10:32:20.041Z,65.5
2019-03-19T10:33:09.814Z,65.6
2019-03-19T10:34:00.246Z,65.6
2019-03-19T10:34:50.209Z,65.7
2019-03-19T10:35:40.284Z,65.8
2019-03-19T10:36:30.072Z,65.8
2019-03-19T10:37:20.133Z,65.9
2019-03-19T10:38:09.906Z,66
2019-03-19T10:39:00.519Z,66.1
2019-03-19T10:39:50.587Z,66.1
2019-03-19T10:40:40.402Z,66.2
2019-03-19T10:41:30.713Z,66.3
2019-03-19T10:42:20.756Z,66.3
2019-03-19T10:43:10.818Z,66.4
2019-03-19T10:44:00.883Z,66.4
2019-03-19T10:44:50.663Z,66.5
2019-03-19T10:45:40.726Z,66.6
2019-03-19T10:46:30.788Z,66.6
2019-03-19T10:47:21.123Z,66.7
2019-03-19T10:48:11.192Z,66.6
2019-03-19T10:49:01.245Z,66.6
2019-03-19T10:49:51.305Z,66.6
2019-03-19T10:50:41.368Z,66.5
2019-03-19T10:51:31.420Z,66.6
2019-03-19T10:52:21.500Z,66.6
2019-03-19T10:53:11.555Z,66.6
2019-03-19T10:54:01.612Z,66.6
2019-03-19T10:54:51.382Z,66.5
2019-03-19T10:55:41.749Z,66.5
2019-03-19T10:56:31.248Z,66.6
2019-03-19T10:57:21.580Z,66.6
2019-03-19T10:58:12.657Z,66.6
2019-03-19T10:59:01.980Z,66.5
2019-03-19T10:59:52.046Z,65.9
2019-03-19T11:00:41.820Z,65.1
2019-03-19T11:01:32.173Z,64.2
2019-03-19T11:02:22.270Z,63.2
2019-03-19T11:03:12.279Z,62.2
2019-03-19T11:04:02.339Z,61.3
2019-03-19T11:04:51.857Z,60.3
2019-03-19T11:05:42.192Z,59.4
2019-03-19T11:06:31.982Z,58.4
2019-03-19T11:07:22.635Z,57.4
2019-03-19T11:08:12.366Z,56.7
2019-03-19T11:09:02.742Z,56.3
2019-03-19T11:09:52.769Z,56.3
2019-03-19T11:10:42.544Z,56.6
2019-03-19T11:11:32.629Z,56.8
2019-03-19T11:12:23.004Z,57.1
2019-03-19T11:13:13.014Z,57.4
2019-03-19T11:14:03.071Z,57.6
2019-03-19T11:14:53.128Z,57.8
2019-03-19T11:15:43.194Z,58.1
2019-03-19T11:16:33.257Z,58.3
2019-03-19T11:18:13.373Z,58.9
2019-03-19T11:19:03.440Z,59.2
2019-03-19T11:19:53.221Z,59.6
2019-03-19T11:20:46.001Z,59.8
2019-03-19T11:21:33.607Z,60.1
2019-03-19T11:22:23.677Z,60.4
2019-03-19T11:23:13.731Z,60.7
2019-03-19T11:24:03.806Z,60.9
2019-03-19T11:24:53.597Z,61.2
2019-03-19T11:25:55.078Z,61.4
2019-03-19T11:26:33.713Z,61.8
2019-03-19T11:27:23.763Z,61.9
2019-03-19T11:28:15.411Z,62.1
2019-03-19T11:29:03.905Z,62.4
2019-03-19T11:30:01.601Z,62.6
2019-03-19T11:30:44.017Z,62.8
2019-03-19T11:31:34.348Z,62.9
2019-03-19T11:32:24.403Z,62.4
2019-03-19T11:33:14.462Z,61.8
2019-03-19T11:34:04.528Z,61.6
2019-03-19T11:34:54.311Z,61.6
2019-03-19T11:35:46.873Z,61.8
2019-03-19T11:36:34.707Z,61.8
2019-03-19T11:37:24.213Z,61
2019-03-19T11:38:14.557Z,61
2019-03-19T11:39:04.879Z,61.1
2019-03-19T11:39:54.987Z,61.3
2019-03-19T11:40:45.037Z,61.6
2019-03-19T11:41:35.071Z,61.8
2019-03-19T11:42:25.117Z,62.1
2019-03-19T11:43:14.922Z,62.3
2019-03-19T11:44:05.277Z,62.4
2019-03-19T11:44:55.317Z,62.6
2019-03-19T11:45:45.092Z,62.8
2019-03-19T11:46:35.427Z,63.1
2019-03-19T11:47:25.499Z,63.3
2019-03-19T11:48:15.288Z,63.4
2019-03-19T11:49:05.619Z,63.6
2019-03-19T11:49:55.118Z,63.8
2019-03-19T11:50:45.461Z,64.1
2019-03-19T11:51:35.801Z,64.2
2019-03-19T11:52:25.855Z,64.4
2019-03-19T11:53:15.916Z,64.6
2019-03-19T11:54:05.701Z,64.7
2019-03-19T11:54:56.036Z,64.8
2019-03-19T11:55:46.101Z,65
2019-03-19T11:56:36.166Z,65.1
2019-03-19T11:57:26.231Z,65.3
2019-03-19T11:58:15.745Z,65.4
2019-03-19T11:59:06.379Z,65.5
2019-03-19T11:59:56.412Z,65.6
2019-03-19T12:00:46.486Z,65.8
2019-03-19T12:01:36.541Z,65.9
2019-03-19T12:02:27.869Z,65.9
2019-03-19T12:03:17.858Z,66.1
2019-03-19T12:04:06.718Z,66.2
2019-03-19T12:06:28.074Z,66.4
2019-03-19T12:07:18.134Z,66.5
2019-03-19T12:08:08.206Z,66.6
2019-03-19T12:08:58.263Z,66.6
2019-03-19T12:09:48.313Z,66.8
2019-03-19T12:10:38.381Z,66.8
2019-03-19T12:11:28.435Z,66.9
2019-03-19T12:12:18.498Z,66.9
2019-03-19T12:13:08.275Z,67
2019-03-19T12:13:58.625Z,67.1
2019-03-19T12:14:48.751Z,67.1
2019-03-19T12:15:38.741Z,67.2
2019-03-19T12:16:28.448Z,67.3
2019-03-19T12:17:18.859Z,67.3
2019-03-19T12:18:08.645Z,67.3
2019-03-19T12:18:58.979Z,67.4
2019-03-19T12:19:49.057Z,67.4
2019-03-19T12:20:39.105Z,67.5
2019-03-19T12:21:28.939Z,67.5
2019-03-19T12:22:19.225Z,67.6
2019-03-19T12:23:09.295Z,67.6
2019-03-19T12:23:59.365Z,67.6
2019-03-19T12:24:49.417Z,67.7
2019-03-19T12:25:39.317Z,67.8
2019-03-19T12:26:29.522Z,67.8
2019-03-19T12:27:19.322Z,67.8
2019-03-19T12:28:09.650Z,67.9